Aérodrome :
LOGIN :

S'inscrire | Disclaimer

   EN    FR    IT 

 










Légende :    VFR   VFR Marginal   IFR   IFR Intensif   IFR Très Intensif
Visi : 
Plafond : 
>= 8 km
>= 3000ft
5 à 8 km
1000 à 3000 ft
1500m à 5 km
500 à 1000 ft
800 à 1500m
200 à 500 ft
< 800m
< 200 ft
Symboles :   Orages  Brouillard  Fortes neiges  Fortes précipitations  Vent > 20 kt
SIGMETs :   Divers  Orages  Givrage  Turbulence  Onde Orograph.  Cendres Volcan.







- Altitude de l'aérodrome : 200 ft


EBBL - Klein Brogel AB

DERNIER METAR :
  • 210451Z AUTO 25004KT 4800 NCD 00/M00 Q1012 GRN

METARs EXPIRÉS :
  • 210438Z AUTO 26004KT 7000 NCD 01/00 Q1011 WHT
  • 210425Z AUTO 26005KT 9999 FEW047/// 01/00 Q1011 BLU
  • 210417Z AUTO 26005KT 5000 FEW030/// 01/01 Q1011 WHT
  • 210406Z AUTO 26006KT 4800 FEW030/// SCT047/// 01/01 Q1011 GRN
  • 210355Z AUTO 26005KT 5000 FEW030/// 01/01 Q1011 WHT
  • 210325Z AUTO 26006KT 6000 FEW026/// 01/01 Q1010 WHT
  • 210321Z AUTO 26006KT 6000 FEW029/// 01/01 Q1010 WHT
  • 210255Z AUTO 27005KT 3700 BR NCD 01/01 Q1010 GRN
  • 210243Z AUTO 27005KT 3500 BR NCD 01/01 Q1009 YLO
  • 210225Z AUTO 28005KT 4600 BR FEW044/// 02/01 Q1009 GRN
  • 210155Z AUTO 28006KT 4100 BR SCT006/// BKN047/// BKN075/// 02/02 Q1009 YLO

Prévision TAF périmée.
Pas de NOTAMs connus pour ce terrain.



MET'MAP, la Météo Aéronautique d'un coup d'oeil ! - Copyright ORBIFLY Décembre 2007 - Disclaimer

ORBIFLY MET'MAP TEAM :

Programmation & Développement : Alexandra Zaïnal
Conception & Développement : Baudouin d'Aumeries
Co-Programmation & Développement : Marc-Olivier Méhu
Soutien technique & logistique : Manuel Goepfert

Contact : metmap@orbifly.com




SOURCES & CREDITS :

   NOAA